WetterOnline ( http://www.wetteronline.de )

Wetter aktuell Magdeburg

Aktuelles Wetter: Magdeburg (85m)

6-stündlich | Neueste Meldungen
Ortszeit Temperatur Wetter
Mi, 17.10. 2:00 13.4° C bedeckt
Di, 16.10. 20:00 15.8° C bedeckt
Di, 16.10. 14:00 20.5° C fast wolkenlos
Di, 16.10. 8:00 11.0° C bedeckt
Di, 16.10. 2:00 8.7° C leicht bewölkt
Mo, 15.10. 20:00 14.6° C leicht bewölkt
Mo, 15.10. 14:00 23.0° C wolkenlos
Mo, 15.10. 8:00 10.2° C fast wolkenlos
Ortszeit Temperatur Wetter
Mi, 17.10. 7:00 10.7° C leicht bewölkt
Mi, 17.10. 6:50 10.7° C leicht bewölkt
Mi, 17.10. 6:40 10.7° C leicht bewölkt
Mi, 17.10. 6:30 11.0° C wolkig
Mi, 17.10. 6:20 11.0° C wolkig
Mi, 17.10. 6:10 11.1° C bedeckt
Mi, 17.10. 6:00 11.1° C bedeckt
Mi, 17.10. 5:30 11.1° C wolkig
Mi, 17.10. 5:00 10.8° C wolkig
Mi, 17.10. 4:30 11.1° C leicht bewölkt
Mi, 17.10. 4:00 11.7° C leicht bewölkt
Ortszeit Relative Feuchte Sichtweite
Mi, 17.10. 2:00 83% 12 km
Di, 16.10. 20:00 68% 14 km
Di, 16.10. 14:00 41% 17 km
Di, 16.10. 8:00 75% 16 km
Di, 16.10. 2:00 84% 17 km
Mo, 15.10. 20:00 65% 28 km
Mo, 15.10. 14:00 36% 40 km
Mo, 15.10. 8:00 74% 21 km
Ortszeit Relative Feuchte Sichtweite
Mi, 17.10. 7:00 93% 3.8 km
Mi, 17.10. 6:50 93% -
Mi, 17.10. 6:40 93% -
Mi, 17.10. 6:30 94% 3.9 km
Mi, 17.10. 6:20 94% -
Mi, 17.10. 6:10 93% -
Mi, 17.10. 6:00 92% 4.4 km
Mi, 17.10. 5:30 92% 4.9 km
Mi, 17.10. 5:00 92% 5.0 km
Mi, 17.10. 4:30 91% 6 km
Mi, 17.10. 4:00 89% 7 km
Ortszeit Niederschlagsmenge Niederschlagsart
Mi, 17.10. 2:00 0.1 l/m2 in 6 Std. Regen
Di, 16.10. 20:00 0.0 l/m2 in 12 Std. -
Di, 16.10. 14:00 0.0 l/m2 in 6 Std. -
Di, 16.10. 8:00 0.0 l/m2 in 12 Std. -
Di, 16.10. 2:00 0.0 l/m2 in 6 Std. -
Mo, 15.10. 20:00 0.0 l/m2 in 12 Std. -
Mo, 15.10. 14:00 0.0 l/m2 in 6 Std. -
Mo, 15.10. 8:00 0.0 l/m2 in 12 Std. -
Ortszeit Niederschlagsmenge Niederschlagsart
Mi, 17.10. 7:00 0.0 l/m2 in 1 Std. -
Mi, 17.10. 6:50 keine Meldung -
Mi, 17.10. 6:40 keine Meldung -
Mi, 17.10. 6:30 0.0 l/m2 in 1 Std. -
Mi, 17.10. 6:20 keine Meldung -
Mi, 17.10. 6:10 keine Meldung -
Mi, 17.10. 6:00 0.0 l/m2 in 1 Std. -
Mi, 17.10. 5:30 0.0 l/m2 in 1 Std. -
Mi, 17.10. 5:00 0.0 l/m2 in 1 Std. -
Mi, 17.10. 4:30 0.0 l/m2 in 1 Std. -
Mi, 17.10. 4:00 0.0 l/m2 in 1 Std. -
Ortszeit Stärke Spitze Richtung
km/h Bft. km/h Grad Sektor
Mi, 17.10. 2:00 4 1 11 310° NW
Di, 16.10. 20:00 4 1 14 190° S
Di, 16.10. 14:00 4 1 11 10° N
Di, 16.10. 8:00 4 1 14 340° N
Di, 16.10. 2:00 0 0 7 - -
Mo, 15.10. 20:00 4 1 25 80° O
Mo, 15.10. 14:00 7 2 22 140° SO
Mo, 15.10. 8:00 7 2 18 150° SO
Ortszeit Stärke Spitze Richtung
km/h Bft. km/h Grad Sektor
Mi, 17.10. 7:00 0 0 7 - -
Mi, 17.10. 6:50 0 0 - 10° N
Mi, 17.10. 6:40 2 1 - 330° NW
Mi, 17.10. 6:30 4 1 7 300° NW
Mi, 17.10. 6:20 4 1 - 300° NW
Mi, 17.10. 6:10 4 1 - 300° NW
Mi, 17.10. 6:00 4 1 11 300° NW
Mi, 17.10. 5:30 4 1 11 300° NW
Mi, 17.10. 5:00 4 1 11 300° NW
Mi, 17.10. 4:30 4 1 7 280° W
Mi, 17.10. 4:00 4 1 7 280° W
Ortszeit Untergrenze Bedeckung Gattung
total tief tief mittel hoch
Mi, 17.10. 2:00 3000 m 8/8 8/8 - - -
Di, 16.10. 20:00 3000 m 8/8 8/8 - - -
Di, 16.10. 14:00 6300 m 1/8 1/8 - - -
Di, 16.10. 8:00 3600 m 8/8 8/8 - - -
Di, 16.10. 2:00 4200 m 4/8 4/8 - - -
Mo, 15.10. 20:00 5400 m 4/8 3/8 - - -
Mo, 15.10. 14:00 - 0/8 0/8 - - -
Mo, 15.10. 8:00 3000 m 1/8 1/8 - - -
Ortszeit Bedeckungsgrad in Achtel und Wolkenuntergrenze
Mi, 17.10. 7:00 3(3300m)
Mi, 17.10. 6:50 3(3300m)
Mi, 17.10. 6:40 4(3600m)
Mi, 17.10. 6:30 6(3300m)
Mi, 17.10. 6:20 6(3300m)
Mi, 17.10. 6:10 8(3300m)
Mi, 17.10. 6:00 8(3300m)
Mi, 17.10. 5:30 5(3600m)
Mi, 17.10. 5:00 3(3600m)
Mi, 17.10. 4:30 2(3600m)
Mi, 17.10. 4:00 3(3600m)
Ortszeit Luftdruck NN (hPa) Tendenz (hPa in 3 Std.)
Mi, 17.10. 2:00 1019 - 0,3
Di, 16.10. 20:00 1019 + 1,0
Di, 16.10. 14:00 1018 + 0,2
Di, 16.10. 8:00 1018 + 1,1
Di, 16.10. 2:00 1017 + 0,6
Mo, 15.10. 20:00 1016 + 1,1
Mo, 15.10. 14:00 1014 - 0,4
Mo, 15.10. 8:00 1014 + 0,4
Ortszeit Luftdruck NN (hPa) Tendenz (hPa in 3 Std.)
Mi, 17.10. 7:00 1019 + 0,2
Mi, 17.10. 6:50 1019 keine Meldung
Mi, 17.10. 6:40 1019 keine Meldung
Mi, 17.10. 6:30 1019 0,0
Mi, 17.10. 6:20 1019 keine Meldung
Mi, 17.10. 6:10 1019 keine Meldung
Mi, 17.10. 6:00 1019 - 0,3
Mi, 17.10. 5:30 1019 - 0,3
Mi, 17.10. 5:00 1019 - 0,3
Mi, 17.10. 4:30 1019 - 0,2
Mi, 17.10. 4:00 1019 - 0,2
Ortszeit Schneehöhe (cm)
Mi, 17.10. 2:00 0
Di, 16.10. 20:00 0
Di, 16.10. 14:00 0
Di, 16.10. 8:00 0
Di, 16.10. 2:00 0
Mo, 15.10. 20:00 0
Mo, 15.10. 14:00 0
Mo, 15.10. 8:00 0
Ortszeit Schneehöhe (cm)
Mi, 17.10. 7:00 0
Mi, 17.10. 6:50 0
Mi, 17.10. 6:40 0
Mi, 17.10. 6:30 0
Mi, 17.10. 6:20 0
Mi, 17.10. 6:10 0
Mi, 17.10. 6:00 0
Mi, 17.10. 5:30 0
Mi, 17.10. 5:00 0
Mi, 17.10. 4:30 0
Mi, 17.10. 4:00 0
Link zu dieser Seite / Seite empfehlen

Das Wetter in ...